createdAt,value
2018-06-20T08:06:27.680Z,2998.13
2018-06-20T08:27:26.172Z,3341.25
2018-06-20T08:46:07.444Z,3408.75
2018-06-20T08:47:01.359Z,3470.63
2018-06-20T09:17:12.321Z,1203.75
2018-06-20T09:18:18.735Z,950.63
2018-06-20T09:19:03.810Z,1057.50
2018-06-20T09:20:08.906Z,3943.13
2018-06-20T09:21:18.977Z,984.38
2018-06-20T09:24:00.564Z,821.25
2018-06-20T09:24:29.231Z,905.63
2018-06-20T09:25:31.573Z,1175.63
2018-06-20T09:27:01.677Z,894.38
2018-06-20T09:30:52.221Z,877.50
2018-06-20T09:31:37.976Z,2205.00
2018-06-20T09:32:54.990Z,3729.38
2018-06-20T09:33:58.526Z,3875.63
2018-06-20T09:34:56.036Z,3965.63
2018-06-20T09:36:00.541Z,2958.75
2018-06-20T09:36:47.748Z,4066.88
2018-06-20T09:38:03.012Z,2458.13
2018-06-20T09:48:48.165Z,1535.63
2018-06-20T09:54:30.986Z,1130.63
2018-06-20T10:12:25.387Z,3774.38
2018-06-20T10:12:40.427Z,3285.00
2018-06-20T10:15:34.852Z,3757.50
2018-06-20T10:16:43.055Z,3211.88
2018-06-20T10:17:10.146Z,2261.25
2018-06-20T10:18:35.647Z,708.75
2018-06-20T10:19:21.728Z,725.63
2018-06-20T10:25:29.697Z,3847.50
2018-06-20T10:27:37.502Z,714.38
2018-06-20T10:30:12.826Z,596.25
2018-06-20T10:32:00.313Z,3633.75
2018-06-20T10:32:58.556Z,3352.50
2018-06-20T10:35:51.720Z,2823.75
2018-06-20T10:42:56.300Z,888.75
2018-06-20T10:50:27.217Z,1091.25
2018-06-20T10:51:21.274Z,1316.25
2018-06-20T10:52:26.805Z,1310.63
2018-06-20T10:54:18.977Z,1496.25
2018-06-20T10:55:39.283Z,720.00
2018-06-20T10:56:47.382Z,815.63
2018-06-20T10:57:26.374Z,905.63
2018-06-20T11:06:27.170Z,781.88
2018-06-20T11:07:47.564Z,804.38
2018-06-20T11:08:34.010Z,826.88
2018-06-20T11:09:22.382Z,849.38
2018-06-20T11:13:50.250Z,433.13
2018-06-20T11:14:30.840Z,466.88
2018-06-20T11:16:03.292Z,483.75
2018-06-20T11:16:31.954Z,455.63
2018-06-20T11:17:38.775Z,703.13
2018-06-20T11:18:58.779Z,691.88
2018-06-20T11:19:26.340Z,680.63
2018-06-20T11:20:28.806Z,675.00
2018-06-20T11:21:39.246Z,675.00
2018-06-20T11:24:24.204Z,686.25
2018-06-20T11:26:35.937Z,675.00
2018-06-20T11:28:09.078Z,675.00
2018-06-20T11:28:57.572Z,669.38
2018-06-20T11:30:01.946Z,652.50
2018-06-20T11:30:39.572Z,635.63
2018-06-20T11:31:54.790Z,641.25
2018-06-20T11:32:42.512Z,646.88
2018-06-20T11:33:33.496Z,641.25
2018-06-20T11:34:36.551Z,675.00
2018-06-20T11:35:34.916Z,669.38
2018-06-20T11:36:51.028Z,438.75
2018-06-20T11:37:58.416Z,388.13
2018-06-20T11:39:00.515Z,534.38
2018-06-20T11:39:38.579Z,568.13
2018-06-20T11:40:57.047Z,568.13
2018-06-20T11:41:34.174Z,568.13
2018-06-20T11:42:40.121Z,562.50
2018-06-20T11:43:36.120Z,568.13
2018-06-20T11:44:35.219Z,568.13
2018-06-20T11:45:38.573Z,585.00
2018-06-20T11:46:51.530Z,590.63
2018-06-20T11:47:48.077Z,585.00
2018-06-20T11:48:37.399Z,618.75
2018-06-20T11:49:56.718Z,646.88
2018-06-20T11:50:43.030Z,641.25
2018-06-20T11:51:51.570Z,534.38
2018-06-20T11:52:39.027Z,601.88
2018-06-20T11:53:39.172Z,483.75
2018-06-20T11:54:42.562Z,590.63
2018-06-20T11:55:58.865Z,568.13
2018-06-20T11:56:38.550Z,551.25
2018-06-20T11:58:00.067Z,545.63
2018-06-20T11:58:42.036Z,540.00
2018-06-20T11:59:39.829Z,540.00
2018-06-20T12:00:40.556Z,540.00
2018-06-20T12:01:41.531Z,534.38
2018-06-20T12:02:40.121Z,534.38
2018-06-20T12:03:42.074Z,540.00
2018-06-20T12:04:40.115Z,534.38
2018-06-20T12:05:38.751Z,528.75
2018-06-20T12:06:41.618Z,517.50
2018-06-20T12:07:44.579Z,517.50
2018-06-20T12:08:43.272Z,511.88
2018-06-20T12:09:46.072Z,511.88
2018-06-20T12:10:52.018Z,511.88
2018-06-20T12:11:45.624Z,511.88
2018-06-20T12:12:55.627Z,511.88
2018-06-20T12:13:42.348Z,506.25
2018-06-20T12:16:24.334Z,489.38
2018-06-20T12:17:38.111Z,483.75
2018-06-20T12:18:15.223Z,483.75
2018-06-20T12:19:15.824Z,478.13
2018-06-20T12:20:13.318Z,472.50
2018-06-20T12:21:15.265Z,427.50
2018-06-20T12:22:15.361Z,427.50
2018-06-20T12:23:17.302Z,461.25
2018-06-20T12:24:35.165Z,461.25
2018-06-20T12:25:32.333Z,455.63
2018-06-20T12:26:42.995Z,450.00
2018-06-20T12:27:15.812Z,444.38
2018-06-20T12:28:16.810Z,433.13
2018-06-20T12:29:30.806Z,427.50
2018-06-20T12:30:23.761Z,427.50
2018-06-20T12:31:18.285Z,421.88
2018-06-20T12:32:40.803Z,421.88
2018-06-20T12:33:19.745Z,427.50
2018-06-20T12:34:18.292Z,405.00
2018-06-20T12:35:19.261Z,382.50
2018-06-20T12:36:16.627Z,416.25
2018-06-20T12:37:24.812Z,410.63
2018-06-20T12:38:20.796Z,405.00
2018-06-20T12:39:44.240Z,399.38
2018-06-20T12:40:20.286Z,405.00
2018-06-20T12:41:33.293Z,405.00
2018-06-20T12:42:17.898Z,399.38
2018-06-20T12:43:19.132Z,393.75
2018-06-20T12:44:24.376Z,393.75
2018-06-20T12:45:25.236Z,382.50
2018-06-20T12:46:30.831Z,376.88
2018-06-20T12:47:35.738Z,376.88
2018-06-20T12:48:22.287Z,371.25
2018-06-20T12:49:23.340Z,360.00
2018-06-20T12:50:23.334Z,360.00
2018-06-20T12:56:08.827Z,326.25
2018-06-20T12:57:42.639Z,326.25
2018-06-20T12:58:09.182Z,320.63
2018-06-20T12:59:19.624Z,320.63
2018-06-20T13:00:42.268Z,315.00
2018-06-20T13:01:30.398Z,315.00
2018-06-20T13:02:28.767Z,315.00
2018-06-20T13:03:07.692Z,309.38
2018-06-20T13:09:15.570Z,298.13
2018-06-20T13:09:53.114Z,298.13
2018-06-20T13:12:35.175Z,281.25
2018-06-20T13:13:42.574Z,281.25
2018-06-20T13:16:30.860Z,281.25
2018-06-20T13:17:31.731Z,275.63
2018-06-20T13:18:08.176Z,275.63
2018-06-20T13:19:43.018Z,275.63
2018-06-20T13:20:10.713Z,281.25
2018-06-20T13:21:07.725Z,275.63
2018-06-20T13:22:15.903Z,281.25
2018-06-20T13:23:26.931Z,264.38
2018-06-20T13:24:19.043Z,247.50
2018-06-20T13:25:05.427Z,241.88
2018-06-20T13:26:06.418Z,241.88
2018-06-20T13:27:08.905Z,236.25
2018-06-20T13:28:12.911Z,236.25
2018-06-20T13:29:08.451Z,236.25
2018-06-20T13:30:28.471Z,236.25
2018-06-20T13:31:20.446Z,230.63
2018-06-20T13:32:06.957Z,230.63
2018-06-20T13:33:06.397Z,225.00
2018-06-20T13:34:10.907Z,225.00
2018-06-20T13:35:09.523Z,219.38
2018-06-20T13:36:09.418Z,219.38
2018-06-20T13:37:28.951Z,213.75
2018-06-20T13:38:12.905Z,213.75
2018-06-20T13:39:28.473Z,213.75
2018-06-20T13:40:10.466Z,213.75
2018-06-20T13:41:33.517Z,208.13
2018-06-20T13:42:09.413Z,208.13
2018-06-20T13:43:09.521Z,202.50
2018-06-20T13:44:32.569Z,202.50
2018-06-20T13:47:22.805Z,202.50
2018-06-20T13:48:18.419Z,202.50
2018-06-20T13:48:43.275Z,208.13
2018-06-20T13:51:46.522Z,208.13
2018-06-20T13:54:04.701Z,202.50
2018-06-20T13:58:11.471Z,191.25
2018-06-20T13:59:13.904Z,191.25
2018-06-20T13:59:51.516Z,185.63
2018-06-20T14:01:14.401Z,185.63
2018-06-20T14:01:51.963Z,191.25
2018-06-20T14:02:52.314Z,191.25
2018-06-20T14:03:53.181Z,196.88
2018-06-20T14:04:55.236Z,202.50
2018-06-20T14:06:06.917Z,202.50
2018-06-20T14:06:52.942Z,196.88
2018-06-20T14:09:42.797Z,180.00
2018-06-20T14:30:58.804Z,157.50
2018-06-20T14:44:28.008Z,140.63
2018-06-20T14:45:39.078Z,140.63
2018-06-20T16:08:58.220Z,112.50
2018-06-20T16:09:39.134Z,106.88
2018-06-20T16:10:17.402Z,106.88
2018-06-20T16:13:12.909Z,106.88
2018-06-20T16:17:20.400Z,106.88
2018-06-20T16:17:56.669Z,106.88
2018-06-20T16:22:22.932Z,106.88
2018-06-20T16:34:16.487Z,101.25
2018-06-20T16:35:43.922Z,101.25
2018-06-20T16:36:55.562Z,101.25
2018-06-20T16:37:45.017Z,101.25
2018-06-20T16:38:45.926Z,101.25
2018-06-20T16:39:40.647Z,101.25
2018-06-20T16:41:16.387Z,101.25
2018-06-20T16:45:04.157Z,101.25
2018-06-20T18:43:57.189Z,39.38
2018-06-20T19:26:02.298Z,11.25
2018-06-20T19:31:02.392Z,11.25
2018-06-20T19:41:44.397Z,5.63
2018-06-20T19:42:12.116Z,0.00
2018-06-20T19:43:14.674Z,0.00
2018-06-20T19:44:14.168Z,0.00
